createdAt,value
2022-08-17T00:04:19.864Z,67.69
2022-08-17T00:09:22.767Z,67.88
2022-08-17T00:14:25.563Z,68.43
2022-08-17T00:19:28.674Z,68.84
2022-08-17T00:24:31.423Z,69.19
2022-08-17T00:29:34.254Z,69.38
2022-08-17T00:34:38.395Z,70.08
2022-08-17T00:39:42.092Z,69.58
2022-08-17T00:44:44.948Z,69.87
2022-08-17T00:49:48.523Z,68.91
2022-08-17T00:54:52.299Z,68.39
2022-08-17T01:00:02.742Z,68.13
2022-08-17T01:05:06.458Z,68.38
2022-08-17T01:10:58.522Z,69.05
2022-08-17T01:15:49.305Z,69.09
2022-08-17T01:21:12.048Z,69.67
2022-08-17T01:26:35.594Z,70.02
2022-08-17T01:31:54.813Z,69.78
2022-08-17T01:36:58.872Z,69.57
2022-08-17T01:42:20.300Z,69.88
2022-08-17T01:47:36.021Z,70.96
2022-08-17T01:52:39.978Z,71.23
2022-08-17T01:57:45.515Z,71.73
2022-08-17T02:02:49.265Z,72.44
2022-08-17T02:08:00.603Z,72.84
2022-08-17T02:13:03.673Z,74.09
2022-08-17T02:18:07.764Z,74.43
2022-08-17T02:23:10.667Z,73.99
2022-08-17T02:28:13.673Z,73.54
2022-08-17T02:33:16.941Z,73.50
2022-08-17T02:38:23.440Z,73.58
2022-08-17T02:43:27.487Z,73.15
2022-08-17T02:48:32.037Z,72.76
2022-08-17T02:53:35.739Z,72.73
2022-08-17T02:58:40.235Z,72.66
2022-08-17T03:03:43.828Z,72.61
2022-08-17T03:08:46.983Z,73.80
2022-08-17T03:13:50.981Z,74.12
2022-08-17T03:18:55.569Z,74.84
2022-08-17T03:23:58.737Z,74.97
2022-08-17T03:29:02.048Z,74.71
2022-08-17T03:34:04.849Z,75.06
2022-08-17T03:39:08.026Z,75.63
2022-08-17T03:44:11.747Z,74.63
2022-08-17T03:49:33.143Z,75.12
2022-08-17T03:54:54.710Z,75.47
2022-08-17T03:59:58.195Z,74.98
2022-08-17T04:05:01.327Z,75.60
2022-08-17T04:10:04.925Z,74.97
2022-08-17T04:15:09.026Z,74.22
2022-08-17T04:20:12.734Z,74.03
2022-08-17T04:25:15.565Z,73.91
2022-08-17T04:30:19.152Z,73.20
2022-08-17T04:35:22.377Z,71.47
2022-08-17T04:40:42.926Z,70.83
2022-08-17T04:45:55.632Z,69.89
2022-08-17T04:51:00.089Z,69.48
2022-08-17T04:56:02.900Z,68.75
2022-08-17T05:01:07.465Z,68.27
2022-08-17T05:06:10.344Z,67.71
2022-08-17T05:11:13.260Z,67.25
2022-08-17T05:16:16.540Z,66.13
2022-08-17T05:21:20.153Z,63.04
2022-08-17T05:26:26.902Z,61.17
2022-08-17T05:31:31.502Z,60.63
2022-08-17T05:36:38.025Z,60.53
2022-08-17T05:41:47.554Z,59.12
2022-08-17T05:46:50.699Z,59.31
2022-08-17T05:51:54.052Z,57.18
2022-08-17T05:56:56.824Z,54.94
2022-08-17T06:01:59.870Z,54.24
2022-08-17T06:07:02.629Z,53.43
2022-08-17T06:12:06.580Z,53.73
2022-08-17T06:17:17.038Z,53.25
2022-08-17T06:22:20.458Z,52.18
2022-08-17T06:27:23.714Z,50.00
2022-08-17T06:32:26.508Z,50.30
2022-08-17T06:37:29.328Z,50.90
2022-08-17T06:42:59.871Z,52.90
2022-08-17T06:47:56.228Z,51.33
2022-08-17T06:52:59.686Z,54.93
2022-08-17T06:58:05.747Z,56.02
2022-08-17T07:03:21.209Z,52.94
2022-08-17T07:08:29.141Z,50.98
2022-08-17T07:13:33.135Z,50.05
2022-08-17T07:18:36.956Z,48.61
2022-08-17T07:23:41.003Z,46.08
2022-08-17T07:28:45.249Z,45.45
2022-08-17T07:33:48.002Z,46.23
2022-08-17T07:38:51.256Z,45.75
2022-08-17T07:43:54.602Z,45.71
2022-08-17T07:48:57.815Z,45.35
2022-08-17T07:54:13.583Z,43.53
2022-08-17T07:59:17.072Z,44.79
2022-08-17T08:04:25.836Z,46.46
2022-08-17T08:09:42.922Z,46.20
2022-08-17T08:14:45.710Z,44.84
2022-08-17T08:19:48.449Z,42.82
2022-08-17T08:24:51.445Z,41.89
2022-08-17T08:29:55.401Z,42.28
2022-08-17T08:35:02.826Z,42.15
2022-08-17T08:40:08.331Z,41.71
2022-08-17T08:45:11.183Z,39.70
2022-08-17T08:50:37.620Z,39.77
2022-08-17T08:55:37.266Z,40.73
2022-08-17T09:00:40.941Z,40.42
2022-08-17T09:05:43.733Z,38.69
2022-08-17T09:10:46.960Z,38.21
2022-08-17T09:15:49.712Z,39.07
2022-08-17T09:20:52.499Z,38.55
2022-08-17T09:25:56.296Z,38.49
2022-08-17T09:31:03.050Z,38.71
2022-08-17T09:36:06.357Z,37.55
2022-08-17T09:41:09.534Z,36.41
2022-08-17T09:46:12.327Z,36.10
2022-08-17T09:51:15.638Z,36.94
2022-08-17T09:56:18.381Z,35.64
2022-08-17T10:01:21.378Z,35.90
2022-08-17T10:06:26.145Z,35.12
2022-08-17T10:11:50.763Z,34.67
2022-08-17T10:16:55.904Z,34.72
2022-08-17T10:22:35.175Z,35.20
2022-08-17T10:27:39.430Z,35.33
2022-08-17T10:32:43.135Z,33.89
2022-08-17T10:37:46.588Z,34.05
2022-08-17T10:42:50.195Z,33.74
2022-08-17T10:47:56.122Z,33.01
2022-08-17T10:53:00.501Z,33.48
2022-08-17T10:58:03.848Z,34.06
2022-08-17T11:03:07.418Z,32.58
2022-08-17T11:08:12.236Z,31.10
2022-08-17T11:13:15.867Z,31.31
2022-08-17T11:18:20.419Z,31.41
2022-08-17T11:23:23.949Z,30.45
2022-08-17T11:28:28.426Z,31.59
2022-08-17T11:33:31.795Z,32.64
2022-08-17T11:38:35.096Z,31.19
2022-08-17T11:43:45.646Z,30.85
2022-08-17T11:49:07.044Z,30.80
2022-08-17T11:59:34.601Z,30.79
2022-08-17T12:04:38.769Z,30.55
2022-08-17T12:09:42.056Z,29.91
2022-08-17T12:15:08.967Z,29.47
2022-08-17T12:20:08.114Z,29.70
2022-08-17T12:25:11.130Z,28.90
2022-08-17T12:30:13.971Z,29.75
2022-08-17T12:35:17.495Z,29.06
2022-08-17T12:40:22.537Z,29.82
2022-08-17T12:45:25.307Z,28.56
2022-08-17T12:50:30.250Z,28.60
2022-08-17T12:55:34.058Z,29.19
2022-08-17T13:00:38.024Z,28.02
2022-08-17T13:05:40.878Z,27.87
2022-08-17T13:10:43.912Z,26.87
2022-08-17T13:15:47.151Z,25.62
2022-08-17T13:20:51.740Z,25.32
2022-08-17T13:25:54.516Z,25.88
2022-08-17T13:30:57.442Z,26.38
2022-08-17T13:36:00.188Z,25.77
2022-08-17T13:41:05.668Z,24.83
2022-08-17T13:46:08.426Z,25.67
2022-08-17T13:51:11.456Z,24.39
2022-08-17T13:56:38.007Z,25.78
2022-08-17T14:01:37.256Z,25.87
2022-08-17T14:06:52.275Z,25.78
2022-08-17T14:11:56.994Z,24.32
2022-08-17T14:17:01.030Z,24.60
2022-08-17T14:22:05.001Z,23.78
2022-08-17T14:27:09.109Z,23.84
2022-08-17T14:32:12.430Z,24.68
2022-08-17T14:37:15.834Z,23.76
2022-08-17T14:42:20.905Z,24.05
2022-08-17T14:47:24.859Z,23.75
2022-08-17T14:52:29.019Z,23.68
2022-08-17T14:57:34.283Z,22.70
2022-08-17T15:02:37.516Z,22.42
2022-08-17T15:07:40.482Z,22.68
2022-08-17T15:12:43.263Z,22.93
2022-08-17T15:17:47.707Z,23.02
2022-08-17T15:22:50.689Z,27.13
2022-08-17T15:27:54.475Z,27.53
2022-08-17T15:32:57.241Z,27.52
2022-08-17T15:38:04.643Z,24.92
2022-08-17T15:43:11.648Z,23.96
2022-08-17T15:48:15.784Z,23.71
2022-08-17T15:53:18.886Z,24.14
2022-08-17T15:58:21.999Z,24.87
2022-08-17T16:04:01.878Z,27.32
2022-08-17T16:08:59.481Z,29.18
2022-08-17T16:14:02.384Z,29.60
2022-08-17T16:19:05.179Z,29.91
2022-08-17T16:24:13.151Z,30.42
2022-08-17T16:29:17.903Z,30.33
2022-08-17T16:34:21.218Z,30.17
2022-08-17T16:39:24.508Z,30.48
2022-08-17T16:44:29.103Z,30.47
2022-08-17T16:49:36.929Z,30.77
2022-08-17T16:54:43.826Z,30.99
2022-08-17T16:59:50.284Z,30.91
2022-08-17T17:04:53.082Z,31.57
2022-08-17T17:09:56.187Z,32.26
2022-08-17T17:15:01.417Z,33.01
2022-08-17T17:20:04.583Z,33.38
2022-08-17T17:43:40.892Z,34.98
2022-08-17T17:49:02.908Z,35.35
2022-08-17T17:54:12.778Z,35.71
2022-08-17T17:59:39.337Z,36.26
2022-08-17T18:05:05.033Z,37.63
2022-08-17T18:10:30.277Z,38.49
2022-08-17T18:15:54.685Z,38.18
2022-08-17T18:21:19.465Z,38.68
2022-08-17T18:26:44.801Z,39.21
2022-08-17T18:32:08.360Z,38.86
2022-08-17T18:37:32.955Z,38.92
2022-08-17T18:42:56.021Z,38.38
2022-08-17T18:48:19.125Z,39.43
2022-08-17T18:53:42.196Z,39.25
2022-08-17T18:59:05.404Z,39.66
2022-08-17T19:04:28.635Z,40.68
2022-08-17T19:10:03.071Z,40.20
2022-08-17T19:15:26.160Z,40.78
2022-08-17T19:20:49.229Z,41.17
2022-08-17T19:26:50.335Z,41.64
2022-08-17T19:31:56.231Z,42.39
2022-08-17T19:37:20.944Z,41.00
2022-08-17T19:42:47.503Z,41.94
2022-08-17T19:51:59.954Z,42.20
2022-08-17T19:57:02.893Z,42.27
2022-08-17T20:02:05.817Z,43.02
2022-08-17T20:07:08.710Z,43.15
2022-08-17T20:12:11.425Z,43.43
2022-08-17T20:17:14.245Z,43.87
2022-08-17T20:22:16.987Z,43.95
2022-08-17T20:27:21.940Z,44.36
2022-08-17T20:32:44.121Z,44.52
2022-08-17T20:37:46.898Z,44.60
2022-08-17T20:42:49.932Z,45.08
2022-08-17T20:48:30.491Z,45.29
2022-08-17T20:53:21.703Z,45.55
2022-08-17T20:58:24.403Z,45.94
2022-08-17T21:03:51.269Z,46.20
2022-08-17T21:08:54.457Z,46.71
2022-08-17T21:13:57.476Z,46.98
2022-08-17T21:19:00.166Z,46.92
2022-08-17T21:24:02.877Z,47.29
2022-08-17T21:29:29.847Z,46.82
2022-08-17T21:34:28.342Z,46.88
2022-08-17T21:39:33.206Z,47.25
2022-08-17T21:44:37.030Z,47.25
2022-08-17T21:49:39.782Z,47.49
2022-08-17T21:54:44.021Z,46.74
2022-08-17T21:59:46.745Z,46.25
2022-08-17T22:04:49.821Z,46.40
2022-08-17T22:09:52.517Z,46.00
2022-08-17T22:14:55.346Z,46.02
2022-08-17T22:19:58.167Z,57.09
2022-08-17T22:25:01.522Z,63.63
2022-08-17T22:30:05.171Z,75.96
2022-08-17T22:35:10.944Z,98.95
2022-08-17T22:40:13.670Z,100.00
2022-08-17T22:45:16.491Z,100.00
2022-08-17T22:50:19.180Z,100.00
2022-08-17T22:55:39.575Z,100.00
2022-08-17T23:00:42.255Z,100.00
2022-08-17T23:05:44.973Z,100.00
2022-08-17T23:10:47.842Z,100.00
2022-08-17T23:15:50.659Z,100.00
2022-08-17T23:20:53.395Z,100.00
2022-08-17T23:25:56.216Z,100.00
2022-08-17T23:30:58.922Z,100.00
2022-08-17T23:36:01.772Z,100.00
2022-08-17T23:41:04.930Z,100.00
2022-08-17T23:46:08.006Z,100.00
2022-08-17T23:51:10.846Z,100.00
2022-08-17T23:56:13.566Z,100.00
